createdAt,value
2023-05-19T00:00:59.219Z,11.56
2023-05-19T00:03:25.134Z,11.52
2023-05-19T00:05:28.474Z,11.46
2023-05-19T00:07:32.803Z,11.42
2023-05-19T00:09:35.738Z,11.41
2023-05-19T00:11:39.911Z,11.41
2023-05-19T00:13:42.869Z,11.44
2023-05-19T00:15:46.483Z,11.47
2023-05-19T00:17:52.906Z,11.49
2023-05-19T00:20:03.155Z,11.47
2023-05-19T00:22:06.598Z,11.44
2023-05-19T00:24:09.805Z,11.40
2023-05-19T00:26:15.952Z,11.37
2023-05-19T00:28:22.152Z,11.31
2023-05-19T00:30:29.518Z,11.28
2023-05-19T00:32:37.222Z,11.26
2023-05-19T00:34:48.868Z,11.25
2023-05-19T00:36:54.838Z,11.28
2023-05-19T00:38:57.553Z,11.28
2023-05-19T00:41:03.147Z,11.30
2023-05-19T00:43:08.585Z,11.33
2023-05-19T00:45:12.129Z,11.36
2023-05-19T00:47:15.238Z,11.37
2023-05-19T00:49:18.417Z,11.34
2023-05-19T00:51:23.294Z,11.29
2023-05-19T00:53:30.580Z,11.24
2023-05-19T00:55:36.379Z,11.23
2023-05-19T00:57:39.724Z,11.21
2023-05-19T00:59:45.625Z,11.20
2023-05-19T01:01:49.616Z,11.17
2023-05-19T01:03:54.364Z,11.12
2023-05-19T01:05:58.202Z,11.07
2023-05-19T01:08:02.535Z,11.04
2023-05-19T01:10:06.731Z,11.02
2023-05-19T01:12:17.907Z,11.05
2023-05-19T01:14:21.502Z,11.07
2023-05-19T01:16:35.511Z,11.11
2023-05-19T01:19:03.788Z,11.16
2023-05-19T01:21:37.186Z,11.18
2023-05-19T01:23:59.504Z,11.17
2023-05-19T01:26:39.939Z,11.14
2023-05-19T01:29:04.324Z,11.09
2023-05-19T01:31:11.787Z,11.05
2023-05-19T01:33:21.654Z,11.04
2023-05-19T01:35:26.324Z,11.04
2023-05-19T01:37:30.222Z,11.04
2023-05-19T01:39:36.436Z,11.02
2023-05-19T01:41:42.122Z,11.00
2023-05-19T01:43:46.192Z,10.97
2023-05-19T01:45:49.169Z,10.96
2023-05-19T01:47:55.846Z,10.96
2023-05-19T01:49:58.763Z,10.96
2023-05-19T01:52:03.002Z,10.97
2023-05-19T01:54:17.186Z,10.95
2023-05-19T01:56:35.140Z,10.92
2023-05-19T01:58:44.834Z,10.91
2023-05-19T02:00:54.597Z,10.89
2023-05-19T02:03:29.541Z,10.92
2023-05-19T02:06:05.178Z,10.92
2023-05-19T02:08:18.470Z,10.92
2023-05-19T02:10:34.369Z,10.88
2023-05-19T02:12:40.710Z,10.86
2023-05-19T02:15:00.154Z,10.85
2023-05-19T02:17:07.655Z,10.83
2023-05-19T02:19:21.038Z,10.85
2023-05-19T02:21:25.619Z,10.87
2023-05-19T02:23:28.935Z,10.90
2023-05-19T02:25:33.350Z,10.87
2023-05-19T02:27:40.242Z,10.81
2023-05-19T02:29:44.567Z,10.78
2023-05-19T02:31:48.566Z,10.74
2023-05-19T02:33:53.574Z,10.71
2023-05-19T02:35:58.235Z,10.71
2023-05-19T02:38:02.441Z,10.70
2023-05-19T02:40:06.014Z,10.67
2023-05-19T02:42:10.587Z,10.65
2023-05-19T02:44:13.499Z,10.62
2023-05-19T02:46:16.303Z,10.63
2023-05-19T02:48:21.316Z,10.60
2023-05-19T02:50:26.396Z,10.60
2023-05-19T02:52:29.395Z,10.59
2023-05-19T02:54:36.349Z,10.58
2023-05-19T02:56:40.845Z,10.58
2023-05-19T02:58:43.491Z,10.55
2023-05-19T03:00:46.358Z,10.53
2023-05-19T03:02:50.320Z,10.51
2023-05-19T03:04:54.627Z,10.49
2023-05-19T03:06:57.803Z,10.47
2023-05-19T03:09:01.316Z,10.47
2023-05-19T03:11:04.836Z,10.44
2023-05-19T03:13:07.467Z,10.44
2023-05-19T03:15:13.880Z,10.44
2023-05-19T03:17:19.627Z,10.44
2023-05-19T03:19:22.833Z,10.44
2023-05-19T03:21:26.696Z,10.44
2023-05-19T03:23:30.970Z,10.43
2023-05-19T03:25:34.273Z,10.39
2023-05-19T03:27:38.242Z,10.35
2023-05-19T03:29:42.361Z,10.33
2023-05-19T03:31:45.051Z,10.30
2023-05-19T03:33:48.644Z,10.30
2023-05-19T03:35:53.051Z,10.30
2023-05-19T03:37:55.851Z,10.30
2023-05-19T03:40:02.177Z,10.32
2023-05-19T03:42:05.764Z,10.34
2023-05-19T03:44:10.066Z,10.34
2023-05-19T03:46:14.528Z,10.36
2023-05-19T03:48:26.955Z,10.34
2023-05-19T03:50:55.892Z,10.30
2023-05-19T03:53:03.963Z,10.27
2023-05-19T03:55:10.107Z,10.24
2023-05-19T03:57:14.455Z,10.22
2023-05-19T03:59:17.038Z,10.21
2023-05-19T04:01:19.842Z,10.22
2023-05-19T04:03:23.102Z,10.26
2023-05-19T04:05:26.106Z,10.28
2023-05-19T04:07:31.709Z,10.30
2023-05-19T04:09:35.574Z,10.30
2023-05-19T04:11:40.536Z,10.31
2023-05-19T04:13:45.180Z,10.34
2023-05-19T04:15:49.025Z,10.32
2023-05-19T04:17:52.942Z,10.28
2023-05-19T04:19:57.470Z,10.23
2023-05-19T04:22:00.470Z,10.20
2023-05-19T04:24:06.730Z,10.22
2023-05-19T04:26:12.692Z,10.23
2023-05-19T04:28:17.997Z,10.23
2023-05-19T04:30:23.312Z,10.22
2023-05-19T04:32:29.431Z,10.21
2023-05-19T04:34:40.322Z,10.20
2023-05-19T04:36:43.617Z,10.19
2023-05-19T04:38:49.488Z,10.18
2023-05-19T04:40:54.056Z,10.20
2023-05-19T04:42:58.062Z,10.21
2023-05-19T04:45:03.299Z,10.22
2023-05-19T04:47:09.308Z,10.26
2023-05-19T04:49:13.594Z,10.30
2023-05-19T04:51:20.175Z,10.32
2023-05-19T04:53:25.970Z,10.35
2023-05-19T04:55:30.149Z,10.36
2023-05-19T04:57:35.027Z,10.39
2023-05-19T04:59:39.199Z,10.40
2023-05-19T05:01:43.668Z,10.44
2023-05-19T05:03:47.750Z,10.46
2023-05-19T05:05:52.098Z,10.49
2023-05-19T05:07:55.094Z,10.51
2023-05-19T05:09:58.952Z,10.54
2023-05-19T05:12:03.329Z,10.57
2023-05-19T05:14:09.528Z,10.62
2023-05-19T05:16:18.944Z,10.66
2023-05-19T05:18:31.014Z,10.67
2023-05-19T05:20:35.593Z,10.72
2023-05-19T05:22:39.722Z,10.76
2023-05-19T05:24:44.388Z,10.79
2023-05-19T05:26:52.233Z,10.82
2023-05-19T05:28:57.032Z,10.85
2023-05-19T05:31:00.957Z,10.85
2023-05-19T05:33:04.470Z,10.85
2023-05-19T05:35:10.657Z,10.87
2023-05-19T05:37:15.799Z,10.88
2023-05-19T05:39:22.633Z,10.87
2023-05-19T05:41:27.390Z,10.89
2023-05-19T05:43:32.260Z,10.88
2023-05-19T05:45:39.138Z,10.88
2023-05-19T05:47:42.800Z,10.90
2023-05-19T05:49:48.233Z,10.94
2023-05-19T05:52:05.874Z,10.97
2023-05-19T05:54:26.254Z,11.00
2023-05-19T05:56:29.784Z,11.04
2023-05-19T05:58:33.086Z,11.07
2023-05-19T06:00:39.237Z,11.10
2023-05-19T06:02:48.048Z,11.14
2023-05-19T06:04:54.155Z,11.18
2023-05-19T06:07:06.809Z,11.22
2023-05-19T06:09:12.737Z,11.27
2023-05-19T06:11:27.193Z,11.30
2023-05-19T06:13:31.263Z,11.34
2023-05-19T06:15:34.387Z,11.38
2023-05-19T06:17:46.058Z,11.42
2023-05-19T06:19:57.030Z,11.48
2023-05-19T06:22:07.433Z,11.52
2023-05-19T06:24:11.246Z,11.54
2023-05-19T06:26:23.228Z,11.57
2023-05-19T06:28:41.661Z,11.61
2023-05-19T06:30:48.826Z,11.65
2023-05-19T06:33:14.408Z,11.71
2023-05-19T06:35:18.021Z,11.74
2023-05-19T06:37:24.997Z,11.78
2023-05-19T06:39:28.227Z,11.81
2023-05-19T06:41:31.416Z,11.88
2023-05-19T06:43:37.368Z,11.96
2023-05-19T06:45:47.574Z,12.06
2023-05-19T06:47:58.720Z,12.16
2023-05-19T06:50:02.962Z,12.23
2023-05-19T06:52:12.212Z,12.31
2023-05-19T06:54:19.117Z,12.41
2023-05-19T06:56:23.103Z,12.48
2023-05-19T06:58:27.207Z,12.55
2023-05-19T07:00:33.969Z,12.64
2023-05-19T07:03:17.099Z,12.75
2023-05-19T07:05:21.083Z,12.81
2023-05-19T07:07:28.428Z,12.89
2023-05-19T07:09:36.550Z,12.94
2023-05-19T07:11:43.685Z,13.01
2023-05-19T07:13:47.961Z,13.09
2023-05-19T07:15:56.178Z,13.17
2023-05-19T07:18:00.667Z,13.23
2023-05-19T07:20:26.094Z,13.31
2023-05-19T07:22:32.532Z,13.45
2023-05-19T07:24:39.758Z,13.53
2023-05-19T07:26:45.277Z,13.57
2023-05-19T07:28:49.787Z,13.60
2023-05-19T07:30:53.829Z,13.62
2023-05-19T07:32:56.546Z,13.69
2023-05-19T07:35:20.450Z,13.80
2023-05-19T07:40:05.246Z,14.08
2023-05-19T07:42:12.959Z,14.21
2023-05-19T07:44:20.193Z,14.31
2023-05-19T07:46:27.703Z,14.42
2023-05-19T07:48:39.502Z,14.53
2023-05-19T07:50:45.169Z,14.60
2023-05-19T07:52:50.230Z,14.67
2023-05-19T07:54:56.318Z,14.74
2023-05-19T07:57:12.911Z,14.80
2023-05-19T07:59:18.320Z,14.84
2023-05-19T08:01:21.440Z,14.86
2023-05-19T08:03:26.049Z,14.88
2023-05-19T08:07:53.326Z,14.92
2023-05-19T08:09:56.367Z,14.90
2023-05-19T08:12:04.947Z,14.93
2023-05-19T08:14:08.430Z,14.99
2023-05-19T08:16:14.090Z,15.05
2023-05-19T08:18:18.848Z,15.09
2023-05-19T08:20:23.089Z,15.13
2023-05-19T08:22:33.392Z,15.19
2023-05-19T08:24:36.595Z,15.24
2023-05-19T08:26:45.079Z,15.29
2023-05-19T08:28:49.993Z,15.35
2023-05-19T08:31:04.524Z,15.40
2023-05-19T08:33:17.231Z,15.44
2023-05-19T08:35:25.223Z,15.46
2023-05-19T08:37:34.264Z,15.50
2023-05-19T08:39:47.370Z,15.55
2023-05-19T08:42:04.840Z,15.61
2023-05-19T08:44:09.327Z,15.64
2023-05-19T08:46:15.328Z,15.67
2023-05-19T08:48:20.444Z,15.72
2023-05-19T08:50:36.197Z,15.77
2023-05-19T08:53:24.680Z,15.78
2023-05-19T08:56:10.979Z,15.84
2023-05-19T08:58:16.403Z,15.87
2023-05-19T09:00:20.757Z,15.89
2023-05-19T09:02:28.843Z,15.90
2023-05-19T09:04:34.391Z,15.93
2023-05-19T09:06:42.938Z,15.97
2023-05-19T09:08:51.283Z,16.01
2023-05-19T09:10:55.589Z,16.04
2023-05-19T09:12:58.579Z,16.09
2023-05-19T09:15:05.399Z,16.11
2023-05-19T09:17:08.443Z,16.14
2023-05-19T09:19:16.065Z,16.16
2023-05-19T09:21:21.016Z,16.20
2023-05-19T09:23:25.200Z,16.22
2023-05-19T09:25:29.538Z,16.26
2023-05-19T09:27:35.367Z,16.35
2023-05-19T09:29:38.389Z,16.44
2023-05-19T09:31:52.550Z,16.49
2023-05-19T09:33:55.158Z,16.52
2023-05-19T09:35:59.266Z,16.53
2023-05-19T09:38:05.785Z,16.53
2023-05-19T09:40:11.910Z,16.52
2023-05-19T09:42:18.411Z,16.53
2023-05-19T09:44:26.732Z,16.58
2023-05-19T09:46:30.482Z,16.61
2023-05-19T09:48:35.826Z,16.67
2023-05-19T09:50:41.084Z,16.71
2023-05-19T09:52:52.689Z,16.74
2023-05-19T09:54:57.838Z,16.76
2023-05-19T09:57:05.233Z,16.75
2023-05-19T09:59:12.602Z,16.75
2023-05-19T10:01:16.915Z,16.76
2023-05-19T10:03:33.384Z,16.75
2023-05-19T10:05:39.796Z,16.74
2023-05-19T10:07:55.013Z,16.76
2023-05-19T10:10:00.803Z,16.74
2023-05-19T10:12:07.329Z,16.76
2023-05-19T10:14:13.022Z,16.82
2023-05-19T10:16:19.173Z,16.89
2023-05-19T10:18:31.333Z,16.97
2023-05-19T10:20:36.354Z,17.04
2023-05-19T10:22:45.611Z,17.08
2023-05-19T10:24:51.418Z,17.14
2023-05-19T10:27:01.883Z,17.18
2023-05-19T10:29:06.729Z,17.23
2023-05-19T10:31:16.665Z,17.26
2023-05-19T10:33:23.156Z,17.34
2023-05-19T10:35:54.184Z,17.36
2023-05-19T10:38:24.592Z,17.37
2023-05-19T10:40:31.066Z,17.38
2023-05-19T10:42:59.362Z,17.42
2023-05-19T10:45:16.292Z,17.48
2023-05-19T10:47:26.202Z,17.54
2023-05-19T10:49:36.995Z,17.59
2023-05-19T10:51:45.536Z,17.65
2023-05-19T10:53:50.533Z,17.70
2023-05-19T10:55:57.094Z,17.73
2023-05-19T10:58:00.598Z,17.79
2023-05-19T11:00:11.939Z,17.87
2023-05-19T11:02:38.979Z,17.95
2023-05-19T11:04:50.328Z,18.07
2023-05-19T11:06:55.757Z,18.15
2023-05-19T11:09:22.582Z,18.18
2023-05-19T11:11:47.126Z,18.18
2023-05-19T11:13:56.878Z,18.18
2023-05-19T11:16:09.376Z,18.20
2023-05-19T11:18:23.000Z,18.28
2023-05-19T11:20:44.462Z,18.30
2023-05-19T11:23:02.015Z,18.27
2023-05-19T11:25:09.945Z,18.25
2023-05-19T11:27:35.241Z,18.21
2023-05-19T11:29:40.186Z,18.26
2023-05-19T11:31:47.602Z,18.27
2023-05-19T11:33:52.921Z,18.28
2023-05-19T11:36:01.220Z,18.32
2023-05-19T11:38:13.472Z,18.39
2023-05-19T11:40:22.144Z,18.48
2023-05-19T11:42:28.001Z,18.56
2023-05-19T11:44:34.270Z,18.62
2023-05-19T11:46:38.509Z,18.67
2023-05-19T11:48:48.912Z,18.66
2023-05-19T11:51:05.043Z,18.67
2023-05-19T11:53:13.617Z,18.67
2023-05-19T11:55:24.904Z,18.68
2023-05-19T11:57:27.973Z,18.60
2023-05-19T11:59:39.974Z,18.53
2023-05-19T12:01:42.746Z,18.52
2023-05-19T12:03:47.187Z,18.54
2023-05-19T12:05:50.808Z,18.59
2023-05-19T12:07:54.006Z,18.58
2023-05-19T12:09:56.842Z,18.61
2023-05-19T12:12:04.282Z,18.63
2023-05-19T12:14:08.751Z,18.65
2023-05-19T12:16:16.217Z,18.72
2023-05-19T12:18:21.755Z,18.77
2023-05-19T12:20:32.876Z,18.81
2023-05-19T12:22:37.431Z,18.83
2023-05-19T12:24:43.000Z,18.87
2023-05-19T12:26:49.079Z,18.89
2023-05-19T12:28:53.832Z,18.92
2023-05-19T12:30:58.807Z,18.89
2023-05-19T12:33:02.905Z,18.83
2023-05-19T12:35:09.612Z,18.81
2023-05-19T12:37:24.362Z,18.80
2023-05-19T12:39:28.394Z,18.75
2023-05-19T12:41:33.792Z,18.71
2023-05-19T12:43:39.529Z,18.70
2023-05-19T12:45:45.465Z,18.68
2023-05-19T12:47:50.153Z,18.65
2023-05-19T12:50:01.209Z,18.62
2023-05-19T12:52:10.506Z,18.61
2023-05-19T12:54:20.789Z,18.62
2023-05-19T12:56:27.464Z,18.70
2023-05-19T12:58:35.117Z,18.76
2023-05-19T13:00:46.811Z,18.82
2023-05-19T13:03:02.377Z,18.92
2023-05-19T13:05:05.867Z,19.03
2023-05-19T13:07:15.971Z,19.10
2023-05-19T13:09:23.224Z,19.18
2023-05-19T13:11:32.926Z,19.22
2023-05-19T13:13:36.197Z,19.26
2023-05-19T13:15:42.314Z,19.32
2023-05-19T13:17:49.135Z,19.36
2023-05-19T13:19:54.510Z,19.37
2023-05-19T13:21:57.424Z,19.36
2023-05-19T13:24:01.531Z,19.37
2023-05-19T13:26:05.554Z,19.42
2023-05-19T13:28:15.768Z,19.51
2023-05-19T13:30:27.424Z,19.57
2023-05-19T13:32:33.366Z,19.64
2023-05-19T13:34:37.488Z,19.69
2023-05-19T13:36:49.137Z,19.70
2023-05-19T13:38:52.897Z,19.70
2023-05-19T13:40:55.774Z,19.75
2023-05-19T13:43:06.211Z,19.83
2023-05-19T13:45:11.063Z,19.87
2023-05-19T13:47:16.807Z,19.90
2023-05-19T13:49:21.055Z,19.98
2023-05-19T13:51:24.547Z,20.02
2023-05-19T13:53:27.463Z,20.08
2023-05-19T13:55:30.151Z,20.15
2023-05-19T13:57:33.484Z,20.21
2023-05-19T13:59:43.088Z,20.25
2023-05-19T14:01:57.134Z,20.33
2023-05-19T14:04:00.902Z,20.33
2023-05-19T14:06:05.300Z,20.31
2023-05-19T14:08:12.150Z,20.30
2023-05-19T14:10:18.045Z,20.29
2023-05-19T14:12:27.521Z,20.26
2023-05-19T14:14:40.105Z,20.20
2023-05-19T14:16:43.399Z,20.13
2023-05-19T14:18:47.274Z,20.08
2023-05-19T14:20:52.452Z,20.06
2023-05-19T14:22:55.541Z,20.05
2023-05-19T14:25:02.278Z,20.00
2023-05-19T14:27:05.026Z,19.94
2023-05-19T14:29:08.983Z,19.90
2023-05-19T14:31:13.448Z,19.86
2023-05-19T14:33:17.571Z,19.86
2023-05-19T14:35:21.061Z,19.85
2023-05-19T14:37:28.849Z,19.84
2023-05-19T14:39:35.362Z,19.85
2023-05-19T14:41:45.058Z,19.88
2023-05-19T14:43:51.320Z,19.86
2023-05-19T14:45:54.452Z,19.87
2023-05-19T14:48:00.469Z,19.86
2023-05-19T14:50:06.427Z,19.84
2023-05-19T14:52:10.644Z,19.81
2023-05-19T14:54:16.413Z,19.79
2023-05-19T14:56:22.092Z,19.78
2023-05-19T14:58:28.184Z,19.78
2023-05-19T15:00:34.182Z,19.85
2023-05-19T15:02:39.183Z,19.99
2023-05-19T15:04:43.621Z,20.13
2023-05-19T15:07:05.730Z,20.30
2023-05-19T15:09:14.720Z,20.36
2023-05-19T15:11:17.373Z,20.30
2023-05-19T15:13:21.770Z,20.26
2023-05-19T15:15:24.838Z,20.20
2023-05-19T15:17:29.816Z,20.10
2023-05-19T15:19:34.328Z,20.01
2023-05-19T15:21:40.403Z,19.95
2023-05-19T15:23:43.443Z,19.97
2023-05-19T15:25:47.980Z,19.98
2023-05-19T15:27:51.277Z,20.05
2023-05-19T15:29:55.585Z,20.07
2023-05-19T15:31:58.300Z,20.08
2023-05-19T15:34:04.782Z,20.05
2023-05-19T15:36:21.306Z,20.01
2023-05-19T15:38:27.817Z,19.97
2023-05-19T15:40:34.789Z,19.92
2023-05-19T15:42:41.895Z,19.88
2023-05-19T15:44:47.809Z,19.89
2023-05-19T15:46:50.948Z,19.88
2023-05-19T15:48:56.680Z,19.85
2023-05-19T15:51:01.314Z,19.80
2023-05-19T15:53:08.172Z,19.75
2023-05-19T15:55:11.790Z,19.70
2023-05-19T15:57:16.823Z,19.67
2023-05-19T15:59:20.313Z,19.63
2023-05-19T16:01:27.796Z,19.61
2023-05-19T16:03:33.330Z,19.56
2023-05-19T16:05:43.328Z,19.56
2023-05-19T16:07:47.859Z,19.58
2023-05-19T16:09:51.909Z,19.58
2023-05-19T16:11:54.694Z,19.57
2023-05-19T16:14:00.163Z,19.51
2023-05-19T16:16:03.322Z,19.48
2023-05-19T16:18:06.953Z,19.48
2023-05-19T16:20:10.851Z,19.48
2023-05-19T16:22:13.659Z,19.44
2023-05-19T16:24:18.775Z,19.43
2023-05-19T16:26:24.552Z,19.39
2023-05-19T16:28:28.077Z,19.35
2023-05-19T16:30:33.302Z,19.34
2023-05-19T16:32:36.762Z,19.32
2023-05-19T16:34:42.696Z,19.28
2023-05-19T16:36:47.124Z,19.23
2023-05-19T16:38:50.230Z,19.18
2023-05-19T16:40:57.554Z,19.13
2023-05-19T16:43:01.656Z,19.06
2023-05-19T16:45:06.776Z,19.02
2023-05-19T16:47:11.667Z,18.96
2023-05-19T16:49:19.736Z,18.93
2023-05-19T16:51:24.660Z,18.89
2023-05-19T16:53:29.596Z,18.86
2023-05-19T16:55:32.532Z,18.87
2023-05-19T16:57:37.379Z,18.86
2023-05-19T16:59:42.692Z,18.81
2023-05-19T17:01:47.997Z,18.74
2023-05-19T17:03:55.617Z,18.69
2023-05-19T17:06:05.227Z,18.65
2023-05-19T17:08:10.964Z,18.58
2023-05-19T17:10:20.848Z,18.57
2023-05-19T17:12:28.725Z,18.53
2023-05-19T17:14:32.516Z,18.52
2023-05-19T17:16:36.065Z,18.54
2023-05-19T17:18:43.731Z,18.58
2023-05-19T17:20:49.768Z,18.69
2023-05-19T17:22:54.953Z,18.86
2023-05-19T17:25:00.754Z,19.01
2023-05-19T17:27:07.616Z,19.06
2023-05-19T17:29:17.098Z,19.05
2023-05-19T17:31:20.724Z,19.00
2023-05-19T17:33:24.926Z,18.97
2023-05-19T17:35:28.608Z,18.89
2023-05-19T17:37:39.188Z,18.81
2023-05-19T17:39:45.085Z,18.80
2023-05-19T17:41:55.082Z,18.74
2023-05-19T17:44:01.315Z,18.69
2023-05-19T17:46:10.191Z,18.66
2023-05-19T17:48:22.814Z,18.66
2023-05-19T17:50:26.825Z,18.62
2023-05-19T17:52:41.212Z,18.57
2023-05-19T17:54:47.957Z,18.54
2023-05-19T17:56:50.995Z,18.51
2023-05-19T17:59:05.405Z,18.48
2023-05-19T18:01:34.340Z,18.43
2023-05-19T18:03:38.172Z,18.40
2023-05-19T18:05:43.411Z,18.33
2023-05-19T18:07:59.735Z,18.25
2023-05-19T18:10:10.825Z,18.19
2023-05-19T18:12:24.172Z,18.15
2023-05-19T18:14:32.171Z,18.11
2023-05-19T18:16:41.786Z,18.07
2023-05-19T18:18:51.030Z,18.02
2023-05-19T18:20:57.008Z,17.97
2023-05-19T18:23:01.781Z,17.95
2023-05-19T18:25:07.261Z,17.91
2023-05-19T18:27:10.834Z,17.87
2023-05-19T18:29:18.706Z,17.85
2023-05-19T18:31:22.944Z,17.86
2023-05-19T18:33:28.716Z,17.86
2023-05-19T18:35:35.750Z,17.84
2023-05-19T18:37:41.260Z,17.81
2023-05-19T18:39:46.813Z,17.80
2023-05-19T18:41:50.973Z,17.77
2023-05-19T18:44:02.165Z,17.73
2023-05-19T18:46:06.230Z,17.68
2023-05-19T18:48:14.039Z,17.63
2023-05-19T18:50:17.778Z,17.57
2023-05-19T18:52:22.049Z,17.52
2023-05-19T18:54:26.484Z,17.46
2023-05-19T18:56:37.879Z,17.41
2023-05-19T18:58:41.792Z,17.37
2023-05-19T19:00:44.526Z,17.35
2023-05-19T19:02:49.432Z,17.31
2023-05-19T19:04:52.477Z,17.27
2023-05-19T19:06:56.026Z,17.24
2023-05-19T19:09:01.034Z,17.20
2023-05-19T19:11:10.855Z,17.17
2023-05-19T19:13:14.258Z,17.13
2023-05-19T19:15:18.442Z,17.10
2023-05-19T19:17:21.471Z,17.07
2023-05-19T19:19:26.462Z,17.04
2023-05-19T19:21:33.050Z,17.01
2023-05-19T19:23:37.228Z,16.99
2023-05-19T19:25:40.789Z,16.97
2023-05-19T19:27:45.693Z,16.93
2023-05-19T19:29:51.865Z,16.91
2023-05-19T19:31:54.556Z,16.89
2023-05-19T19:34:01.730Z,16.88
2023-05-19T19:36:07.882Z,16.88
2023-05-19T19:38:14.972Z,16.86
2023-05-19T19:40:23.108Z,16.85
2023-05-19T19:42:27.062Z,16.83
2023-05-19T19:44:30.161Z,16.81
2023-05-19T19:46:34.713Z,16.76
2023-05-19T19:48:42.155Z,16.73
2023-05-19T19:50:52.875Z,16.72
2023-05-19T19:52:55.480Z,16.70
2023-05-19T19:55:00.473Z,16.66
2023-05-19T19:57:05.480Z,16.64
2023-05-19T19:59:08.379Z,16.62
2023-05-19T20:01:12.218Z,16.58
2023-05-19T20:03:17.983Z,16.55
2023-05-19T20:05:21.944Z,16.51
2023-05-19T20:07:27.111Z,16.49
2023-05-19T20:09:31.532Z,16.46
2023-05-19T20:11:37.491Z,16.43
2023-05-19T20:13:43.765Z,16.40
2023-05-19T20:15:48.099Z,16.38
2023-05-19T20:17:51.777Z,16.35
2023-05-19T20:19:55.211Z,16.34
2023-05-19T20:21:59.852Z,16.32
2023-05-19T20:24:08.075Z,16.29
2023-05-19T20:26:15.167Z,16.24
2023-05-19T20:28:26.157Z,16.21
2023-05-19T20:30:29.072Z,16.20
2023-05-19T20:32:36.127Z,16.18
2023-05-19T20:34:42.331Z,16.17
2023-05-19T20:36:47.683Z,16.16
2023-05-19T20:38:51.813Z,16.13
2023-05-19T20:41:00.575Z,16.10
2023-05-19T20:43:33.376Z,16.06
2023-05-19T20:45:41.354Z,16.05
2023-05-19T20:47:44.610Z,16.04
2023-05-19T20:49:50.034Z,16.00
2023-05-19T20:52:04.575Z,15.98
2023-05-19T20:54:10.574Z,15.98
2023-05-19T20:56:21.401Z,15.95
2023-05-19T20:58:34.285Z,15.91
2023-05-19T21:00:43.035Z,15.89
2023-05-19T21:02:51.517Z,15.86
2023-05-19T21:07:32.993Z,15.78
2023-05-19T21:09:52.107Z,15.76
2023-05-19T21:12:06.014Z,15.75
2023-05-19T21:14:35.671Z,15.74
2023-05-19T21:16:43.642Z,15.70
2023-05-19T21:18:49.670Z,15.69
2023-05-19T21:20:54.884Z,15.70
2023-05-19T21:23:01.901Z,15.68
2023-05-19T21:25:19.823Z,15.67
2023-05-19T21:27:22.866Z,15.68
2023-05-19T21:29:29.138Z,15.69
2023-05-19T21:31:47.462Z,15.70
2023-05-19T21:33:54.233Z,15.68
2023-05-19T21:36:04.184Z,15.67
2023-05-19T21:38:32.455Z,15.62
2023-05-19T21:41:04.565Z,15.60
2023-05-19T21:43:21.633Z,15.59
2023-05-19T21:45:27.218Z,15.58
2023-05-19T21:47:32.232Z,15.60
2023-05-19T21:49:40.353Z,15.60
2023-05-19T21:51:50.501Z,15.61
2023-05-19T21:54:08.752Z,15.59
2023-05-19T21:58:35.876Z,15.57
2023-05-19T22:01:11.353Z,15.54
2023-05-19T22:05:42.821Z,15.47
2023-05-19T22:07:51.267Z,15.46
2023-05-19T22:10:05.990Z,15.46
2023-05-19T22:12:14.621Z,15.45
2023-05-19T22:14:23.829Z,15.42
2023-05-19T22:16:36.505Z,15.39
2023-05-19T22:18:42.427Z,15.35
2023-05-19T22:21:02.792Z,15.30
2023-05-19T22:23:07.167Z,15.25
2023-05-19T22:25:22.846Z,15.21
2023-05-19T22:27:26.877Z,15.17
2023-05-19T22:29:31.189Z,15.10
2023-05-19T22:31:34.991Z,15.06
2023-05-19T22:33:41.207Z,15.04
2023-05-19T22:35:52.351Z,15.00
2023-05-19T22:37:56.660Z,14.97
2023-05-19T22:40:16.108Z,14.95
2023-05-19T22:42:20.416Z,14.95
2023-05-19T22:44:28.205Z,14.93
2023-05-19T22:46:36.496Z,14.93
2023-05-19T22:48:41.324Z,14.93
2023-05-19T22:50:49.527Z,14.90
2023-05-19T22:52:56.140Z,14.88
2023-05-19T22:54:59.467Z,14.88
2023-05-19T22:57:14.516Z,14.88
2023-05-19T22:59:19.153Z,14.85
2023-05-19T23:01:30.211Z,14.83
2023-05-19T23:03:39.760Z,14.80
2023-05-19T23:05:44.349Z,14.78
2023-05-19T23:07:51.648Z,14.76
2023-05-19T23:09:56.592Z,14.75
2023-05-19T23:12:04.590Z,14.73
2023-05-19T23:14:35.316Z,14.70
2023-05-19T23:16:42.497Z,14.68
2023-05-19T23:18:46.473Z,14.66
2023-05-19T23:20:59.905Z,14.62
2023-05-19T23:23:05.777Z,14.58
2023-05-19T23:25:15.060Z,14.54
2023-05-19T23:27:32.196Z,14.52
2023-05-19T23:29:35.356Z,14.51
2023-05-19T23:31:39.785Z,14.50
2023-05-19T23:33:49.158Z,14.51
2023-05-19T23:36:07.998Z,14.51
2023-05-19T23:38:28.594Z,14.50
2023-05-19T23:40:34.048Z,14.51
2023-05-19T23:42:52.007Z,14.50
2023-05-19T23:45:06.203Z,14.47
2023-05-19T23:47:12.179Z,14.45
2023-05-19T23:49:23.811Z,14.44
2023-05-19T23:51:36.793Z,14.41
2023-05-19T23:53:58.207Z,14.39
2023-05-19T23:56:07.269Z,14.36
2023-05-19T23:58:18.752Z,14.33
